Grove City (29D)
Grove City, PA
Field Elevation: 1371
Lat: 41°08.76N  Long: 80°10.06W
CTAF/Unicom Freq: 122.7250
   
     For Weather-by-Phone, call 724 748-3504
Weather Advisories
2016-09-29   20:18 Z
Altimeter 30.14" Hg
Wind 110° @ 12 KT
Gusts 15 KT
Visibility 10 SM
Temperature 17° C (63° F)
Dewpoint 14° C (57° F)
Relative Humidity 82%
Density Altitude --
Condensation Altitude 2,800 feet
Wind and Runways
Indicated Runway = 10
Headwind = 12 kt
Crosswind = 2 kt
History
 
 
 
More Info
All DigiWx sites map
NOAA Forecast
 
Airport IQ 5010
(LHV) Lock Haven
(74PN) Altoona Regional
 
about DigiWx
 
FAA Disclaimer: The data displayed is for advisory purposes only and is not to be used for flight planning or operations. For official data, please call 724 748-3504 to hear the current automated AWOS voice message.
  METAR 29D 292018Z AUTO 11012G15KT 10 SM 17/14 A3014